LRBC/BCM METAR and TAF weather

Enter ICAO airport designator
Station Type Date Time Source
LRBC METAR 2020/09/23 19:00 UTC NOAA

LRBC 231900Z AUTO 18003KT 9999 NCD 16/10 Q1012


Station Type Date Time Source
LRBC Decoded METAR 2020/09/23 19:00 UTC NOAA

Bacau, Romania (LRBC) 46-35N 026-58E 190M
Sep 23, 2020 - 03:00 PM EDT / 2020.09.23 1900 UTC
Wind: from the S (180 degrees) at 3 MPH (3 KT):0
Visibility: greater than 7 mile(s):0
Temperature: 60 F (16 C)
Dew Point: 50 F (10 C)
Relative Humidity: 67%
Pressure (altimeter): 29.88 in. Hg (1012 hPa)
ob: LRBC 231900Z AUTO 18003KT 9999 NCD 16/10 Q1012
cycle: 19

Station Type Date Time Source
LRBC TAF 2010/08/31 20:30 UTC NOAA

TAF LRBC 312030Z 3121/0203 CNL

Example: see airport list